Time;durP1;ratioP1;P1;durP2;ratioP2;P2;SDS_P1;SDS_P2;PMS_P1;PMS_P2;Temp;Humidity;BMP_temperature;BMP_pressure;BME280_temperature;BME280_humidity;BME280_pressure;Samples;Min_cycle;Max_cycle;Signal;HPM_P1;HPM_P2
2024/01/27 00:02:22;0.00;0.00;0.62;0.00;0.00;0.62;2.67;2.13;;;21.20;24.60;;;;;;2225411;62;20929;-69
2024/01/27 00:05:08;0.00;0.00;0.62;0.00;0.00;0.62;3.87;2.60;;;21.20;24.70;;;;;;2224764;62;20434;-70
2024/01/27 00:07:52;0.00;0.00;0.62;0.00;0.00;0.62;3.90;2.20;;;21.20;24.60;;;;;;2224600;62;20490;-66
2024/01/27 00:10:38;0.00;0.00;0.62;0.00;0.00;0.62;4.70;2.57;;;21.20;24.70;;;;;;2225087;62;20448;-68
2024/01/27 00:13:23;0.00;0.00;0.62;0.00;0.00;0.62;2.80;2.10;;;21.20;24.60;;;;;;2224953;62;20377;-67
2024/01/27 00:16:09;0.00;0.00;0.62;0.00;0.00;0.62;4.23;2.27;;;21.20;24.60;;;;;;2224679;62;20928;-68
2024/01/27 00:18:53;0.00;0.00;0.62;0.00;0.00;0.62;3.30;2.00;;;21.20;24.60;;;;;;2224940;62;20373;-68
2024/01/27 00:21:38;0.00;0.00;0.62;0.00;0.00;0.62;4.00;2.50;;;21.20;24.60;;;;;;2224974;62;20462;-68
2024/01/27 00:24:22;0.00;0.00;0.62;0.00;0.00;0.62;2.47;2.00;;;21.10;24.50;;;;;;2225211;62;20408;-68
2024/01/27 00:27:08;0.00;0.00;0.62;0.00;0.00;0.62;2.90;1.70;;;21.20;24.60;;;;;;2225137;62;20429;-67
2024/01/27 00:29:53;0.00;0.00;0.62;0.00;0.00;0.62;3.43;1.87;;;21.20;24.60;;;;;;2225581;62;20432;-63
2024/01/27 00:32:38;0.00;0.00;0.62;0.00;0.00;0.62;3.10;1.90;;;21.20;24.60;;;;;;2225531;62;20529;-64
2024/01/27 00:35:22;0.00;0.00;0.62;0.00;0.00;0.62;3.80;2.03;;;21.20;24.60;;;;;;2225800;62;20950;-64
2024/01/27 00:38:07;0.00;0.00;0.62;0.00;0.00;0.62;3.33;1.93;;;21.20;24.60;;;;;;2226031;62;20369;-63
2024/01/27 00:40:53;0.00;0.00;0.62;0.00;0.00;0.62;2.80;1.90;;;21.20;24.60;;;;;;2225869;62;20443;-64
2024/01/27 00:43:39;0.00;0.00;0.62;0.00;0.00;0.62;3.00;2.10;;;21.20;24.60;;;;;;2225631;62;20574;-63
2024/01/27 00:46:23;0.00;0.00;0.62;0.00;0.00;0.62;3.97;2.10;;;21.10;24.50;;;;;;2225812;62;20483;-64
2024/01/27 00:49:07;0.00;0.00;0.62;0.00;0.00;0.62;3.30;1.57;;;21.10;24.50;;;;;;2225830;62;20358;-65
2024/01/27 00:51:52;0.00;0.00;0.62;0.00;0.00;0.62;2.90;1.53;;;21.10;24.50;;;;;;2225626;62;21054;-65
2024/01/27 00:54:37;0.00;0.00;0.62;0.00;0.00;0.62;3.27;1.80;;;21.10;24.50;;;;;;2225970;62;20409;-64
2024/01/27 00:57:21;0.00;0.00;0.62;0.00;0.00;0.62;5.70;2.20;;;21.10;24.50;;;;;;2225806;62;20450;-66
2024/01/27 01:00:09;0.00;0.00;0.62;0.00;0.00;0.62;4.00;1.80;;;21.10;24.50;;;;;;2225773;62;20496;-64
2024/01/27 01:02:54;0.00;0.00;0.62;0.00;0.00;0.62;2.30;1.63;;;21.10;24.50;;;;;;2225814;62;20393;-64
2024/01/27 01:05:39;0.00;0.00;0.62;0.00;0.00;0.62;3.67;2.43;;;21.10;24.50;;;;;;2222799;62;20971;-65
2024/01/27 01:08:23;0.00;0.00;0.62;0.00;0.00;0.62;4.20;2.27;;;21.10;24.50;;;;;;2225841;62;20490;-65
2024/01/27 01:11:08;0.00;0.00;0.62;0.00;0.00;0.62;3.47;1.83;;;21.10;24.60;;;;;;2226020;62;20393;-63
2024/01/27 01:13:52;0.00;0.00;0.62;0.00;0.00;0.62;4.10;2.10;;;21.10;24.50;;;;;;2225786;62;20373;-65
2024/01/27 01:16:40;0.00;0.00;0.62;0.00;0.00;0.62;3.50;1.87;;;21.10;24.50;;;;;;2225872;62;20787;-64
2024/01/27 01:19:24;0.00;0.00;0.62;0.00;0.00;0.62;4.13;1.80;;;21.10;24.50;;;;;;2225260;62;20373;-63
2024/01/27 01:22:08;0.00;0.00;0.62;0.00;0.00;0.62;2.67;1.30;;;21.10;24.50;;;;;;2225612;62;20384;-64
2024/01/27 01:24:53;0.00;0.00;0.62;0.00;0.00;0.62;3.10;1.80;;;21.10;24.50;;;;;;2225982;62;20389;-64
2024/01/27 01:27:38;0.00;0.00;0.62;0.00;0.00;0.62;3.50;1.63;;;21.20;24.60;;;;;;2225708;62;20372;-64
2024/01/27 01:30:23;0.00;0.00;0.62;0.00;0.00;0.62;3.50;1.93;;;21.10;24.50;;;;;;2225927;62;20385;-64
2024/01/27 01:33:10;0.00;0.00;0.62;0.00;0.00;0.62;4.03;1.80;;;21.10;24.50;;;;;;2225904;62;20872;-63
2024/01/27 01:35:56;0.00;0.00;0.62;0.00;0.00;0.62;2.77;2.07;;;21.10;24.50;;;;;;2226444;62;20458;-61
2024/01/27 01:38:41;0.00;0.00;0.62;0.00;0.00;0.62;2.43;1.50;;;21.10;24.50;;;;;;2226751;62;20369;-64
2024/01/27 01:41:25;0.00;0.00;0.62;0.00;0.00;0.62;4.40;1.93;;;21.10;24.50;;;;;;2226848;62;20420;-64
2024/01/27 01:44:10;0.00;0.00;0.62;0.00;0.00;0.62;2.77;1.40;;;21.10;24.50;;;;;;2226475;62;20441;-65
2024/01/27 01:46:54;0.00;0.00;0.62;0.00;0.00;0.62;2.47;1.60;;;21.10;24.50;;;;;;2226865;62;20880;-63
2024/01/27 01:49:41;0.00;0.00;0.62;0.00;0.00;0.62;2.57;1.40;;;21.10;24.50;;;;;;2226008;62;20555;-64
2024/01/27 01:52:26;0.00;0.00;0.62;0.00;0.00;0.62;4.13;1.80;;;21.10;24.50;;;;;;2225964;62;20457;-64
2024/01/27 01:55:10;0.00;0.00;0.62;0.00;0.00;0.62;2.63;1.57;;;21.10;24.50;;;;;;2226848;62;20426;-64
2024/01/27 01:57:57;0.00;0.00;0.62;0.00;0.00;0.62;2.20;1.50;;;21.10;24.50;;;;;;2226283;62;20414;-66
2024/01/27 02:00:42;0.00;0.00;0.62;0.00;0.00;0.62;5.53;1.80;;;21.10;24.50;;;;;;2226105;62;20446;-65
2024/01/27 02:03:27;0.00;0.00;0.62;0.00;0.00;0.62;3.10;1.80;;;21.10;24.50;;;;;;2226931;62;21127;-64
2024/01/27 02:06:13;0.00;0.00;0.62;0.00;0.00;0.62;2.50;1.57;;;21.10;24.50;;;;;;2226548;62;20397;-65
2024/01/27 02:08:57;0.00;0.00;0.62;0.00;0.00;0.62;2.87;1.60;;;21.10;25.00;;;;;;2225869;62;20373;-65
2024/01/27 02:11:42;0.00;0.00;0.62;0.00;0.00;0.62;2.83;1.73;;;21.10;24.50;;;;;;2225658;62;20408;-63
2024/01/27 02:14:27;0.00;0.00;0.62;0.00;0.00;0.62;2.77;1.47;;;21.10;24.50;;;;;;2225733;62;20357;-65
2024/01/27 02:17:12;0.00;0.00;0.62;0.00;0.00;0.62;2.27;1.57;;;21.10;24.50;;;;;;2225513;62;20376;-64
2024/01/27 02:19:57;0.00;0.00;0.62;0.00;0.00;0.62;2.40;1.53;;;21.10;24.50;;;;;;2225352;62;20373;-63
2024/01/27 02:22:42;0.00;0.00;0.62;0.00;0.00;0.62;1.97;1.20;;;21.10;24.50;;;;;;2225994;62;20584;-65
2024/01/27 02:25:28;0.00;0.00;0.62;0.00;0.00;0.62;5.10;2.20;;;21.10;24.50;;;;;;2225755;62;20546;-63
2024/01/27 02:28:13;0.00;0.00;0.62;0.00;0.00;0.62;2.40;1.37;;;21.10;24.50;;;;;;2225775;62;20385;-63
2024/01/27 02:30:59;0.00;0.00;0.62;0.00;0.00;0.62;2.57;1.20;;;21.00;24.40;;;;;;2227137;62;20982;-67
2024/01/27 02:33:44;0.00;0.00;0.62;0.00;0.00;0.62;3.07;1.20;;;21.00;24.40;;;;;;2728906;46;20932;-65
2024/01/27 02:36:28;0.00;0.00;0.62;0.00;0.00;0.62;2.93;1.40;;;21.00;24.40;;;;;;2230690;62;20399;-65
2024/01/27 02:39:13;0.00;0.00;0.62;0.00;0.00;0.62;2.53;1.30;;;21.00;24.40;;;;;;2230444;62;20428;-67
2024/01/27 02:41:59;0.00;0.00;0.62;0.00;0.00;0.62;2.50;1.50;;;21.00;24.40;;;;;;2230235;62;20388;-68
2024/01/27 02:44:43;0.00;0.00;0.62;0.00;0.00;0.62;3.23;1.47;;;21.00;24.40;;;;;;2229981;62;20452;-68
2024/01/27 02:47:28;0.00;0.00;0.62;0.00;0.00;0.62;3.37;1.50;;;21.00;24.40;;;;;;2230200;62;20413;-68
2024/01/27 02:50:13;0.00;0.00;0.62;0.00;0.00;0.62;2.90;1.50;;;21.00;24.40;;;;;;2231028;62;20918;-63
2024/01/27 02:52:58;0.00;0.00;0.62;0.00;0.00;0.62;3.57;1.97;;;21.00;24.40;;;;;;2231685;62;20387;-62
2024/01/27 02:55:42;0.00;0.00;0.62;0.00;0.00;0.62;2.67;1.30;;;21.00;24.40;;;;;;2229672;62;20790;-67
2024/01/27 02:58:28;0.00;0.00;0.62;0.00;0.00;0.62;3.00;1.50;;;21.00;24.40;;;;;;2228975;62;20368;-67
2024/01/27 03:01:13;0.00;0.00;0.62;0.00;0.00;0.62;1.87;1.30;;;21.00;24.40;;;;;;2228640;62;20408;-66
2024/01/27 03:03:57;0.00;0.00;0.62;0.00;0.00;0.62;2.63;1.43;;;21.00;24.40;;;;;;2228899;62;20902;-65
2024/01/27 03:06:42;0.00;0.00;0.62;0.00;0.00;0.62;2.70;1.40;;;21.00;24.40;;;;;;2228678;62;20380;-62
2024/01/27 03:09:26;0.00;0.00;0.62;0.00;0.00;0.62;3.03;1.40;;;21.00;24.40;;;;;;2228690;62;20421;-64
2024/01/27 03:12:11;0.00;0.00;0.62;0.00;0.00;0.62;6.40;2.07;;;21.00;24.40;;;;;;2228938;62;20387;-63
2024/01/27 03:14:57;0.00;0.00;0.62;0.00;0.00;0.62;2.10;1.30;;;20.90;24.30;;;;;;2228506;62;20766;-61
2024/01/27 03:17:42;0.00;0.00;0.62;0.00;0.00;0.62;2.33;1.23;;;20.90;24.30;;;;;;2228184;62;20420;-64
2024/01/27 03:20:27;0.00;0.00;0.62;0.00;0.00;0.62;3.87;1.50;;;21.00;24.40;;;;;;2228679;62;20368;-67
2024/01/27 03:23:12;0.00;0.00;0.62;0.00;0.00;0.62;2.10;1.10;;;20.90;24.30;;;;;;2228612;62;20905;-68
2024/01/27 03:25:57;0.00;0.00;0.62;0.00;0.00;0.62;1.90;1.23;;;20.90;24.30;;;;;;2228565;62;20400;-67
2024/01/27 03:28:41;0.00;0.00;0.62;0.00;0.00;0.62;3.00;1.40;;;20.90;24.30;;;;;;2228462;62;20440;-68
2024/01/27 03:31:32;0.00;0.00;0.62;0.00;0.00;0.62;4.00;1.60;;;20.90;24.30;;;;;;2228485;62;20405;-67
2024/01/27 03:34:17;0.00;0.00;0.62;0.00;0.00;0.62;1.63;0.90;;;20.90;24.30;;;;;;2228570;62;20867;-67
2024/01/27 03:37:02;0.00;0.00;0.62;0.00;0.00;0.62;3.70;1.70;;;20.90;24.30;;;;;;2228590;62;20368;-68
2024/01/27 03:39:46;0.00;0.00;0.62;0.00;0.00;0.62;2.23;1.03;;;20.90;24.90;;;;;;2228500;62;20373;-67
2024/01/27 03:42:31;0.00;0.00;0.62;0.00;0.00;0.62;3.10;1.43;;;20.90;24.30;;;;;;2228568;62;20486;-68
2024/01/27 03:45:15;0.00;0.00;0.62;0.00;0.00;0.62;2.47;1.30;;;20.90;24.30;;;;;;2228144;62;20875;-68
2024/01/27 03:48:01;0.00;0.00;0.62;0.00;0.00;0.62;2.53;1.20;;;20.90;24.30;;;;;;2228448;62;20467;-68
2024/01/27 03:50:46;0.00;0.00;0.62;0.00;0.00;0.62;2.57;1.43;;;20.90;24.30;;;;;;2228259;62;20482;-68
2024/01/27 03:53:30;0.00;0.00;0.62;0.00;0.00;0.62;1.97;1.27;;;20.90;24.40;;;;;;2228976;62;20480;-68
2024/01/27 03:56:15;0.00;0.00;0.62;0.00;0.00;0.62;3.00;1.40;;;20.90;24.30;;;;;;2228486;62;20369;-67
2024/01/27 03:58:59;0.00;0.00;0.62;0.00;0.00;0.62;3.10;1.00;;;20.90;24.30;;;;;;2229065;62;20894;-68
2024/01/27 04:01:44;0.00;0.00;0.62;0.00;0.00;0.62;2.87;1.47;;;20.90;24.30;;;;;;2229085;62;20392;-68
2024/01/27 04:04:30;0.00;0.00;0.62;0.00;0.00;0.62;1.70;0.97;;;20.90;24.30;;;;;;2228989;62;20479;-67
2024/01/27 04:07:15;0.00;0.00;0.62;0.00;0.00;0.62;2.63;1.30;;;20.90;24.30;;;;;;2229176;62;20427;-67
2024/01/27 04:10:01;0.00;0.00;0.62;0.00;0.00;0.62;3.10;1.40;;;20.90;24.30;;;;;;2229133;62;20367;-67
2024/01/27 04:12:46;0.00;0.00;0.62;0.00;0.00;0.62;3.53;1.60;;;20.90;24.30;;;;;;2228809;62;20520;-68
2024/01/27 04:15:38;0.00;0.00;0.62;0.00;0.00;0.62;3.83;1.27;;;20.90;24.40;;;;;;2229149;62;20363;-67
2024/01/27 04:18:22;0.00;0.00;0.62;0.00;0.00;0.62;1.90;1.03;;;20.90;24.30;;;;;;2228501;62;20364;-68
2024/01/27 04:21:08;0.00;0.00;0.62;0.00;0.00;0.62;2.53;1.13;;;20.90;24.30;;;;;;2229061;62;20460;-68
2024/01/27 04:23:52;0.00;0.00;0.62;0.00;0.00;0.62;3.30;1.50;;;20.90;24.30;;;;;;2229015;62;20376;-68
2024/01/27 04:26:37;0.00;0.00;0.62;0.00;0.00;0.62;3.20;1.47;;;20.90;24.30;;;;;;2228613;62;20755;-67
2024/01/27 04:29:22;0.00;0.00;0.62;0.00;0.00;0.62;1.83;1.00;;;20.90;24.30;;;;;;2229060;62;20435;-67
2024/01/27 04:32:06;0.00;0.00;0.62;0.00;0.00;0.62;3.00;1.60;;;20.90;24.40;;;;;;2228748;62;20855;-67
2024/01/27 04:34:51;0.00;0.00;0.62;0.00;0.00;0.62;3.50;1.07;;;20.80;24.30;;;;;;2229071;62;20413;-67
2024/01/27 04:37:38;0.00;0.00;0.62;0.00;0.00;0.62;2.53;1.20;;;20.80;24.30;;;;;;2229113;62;20527;-68
2024/01/27 04:40:22;0.00;0.00;0.62;0.00;0.00;0.62;2.30;1.10;;;20.80;24.30;;;;;;2228946;62;20429;-67
2024/01/27 04:43:07;0.00;0.00;0.62;0.00;0.00;0.62;1.90;0.97;;;20.80;24.30;;;;;;2229255;62;20385;-68
2024/01/27 04:45:51;0.00;0.00;0.62;0.00;0.00;0.62;2.00;1.20;;;20.90;24.40;;;;;;2228976;62;20812;-66
2024/01/27 04:48:36;0.00;0.00;0.62;0.00;0.00;0.62;3.03;1.30;;;20.80;24.30;;;;;;2228903;62;20376;-68
2024/01/27 04:51:21;0.00;0.00;0.62;0.00;0.00;0.62;3.23;1.53;;;20.80;24.30;;;;;;2229124;62;20424;-67
2024/01/27 04:54:07;0.00;0.00;0.62;0.00;0.00;0.62;2.80;1.00;;;20.80;24.30;;;;;;2229081;62;20440;-66
2024/01/27 04:56:52;0.00;0.00;0.62;0.00;0.00;0.62;2.23;1.10;;;20.80;24.30;;;;;;2228883;62;20368;-68
2024/01/27 04:59:36;0.00;0.00;0.62;0.00;0.00;0.62;2.23;1.20;;;20.80;24.30;;;;;;2229267;62;20432;-67
2024/01/27 05:02:21;0.00;0.00;0.62;0.00;0.00;0.62;2.33;1.27;;;20.80;24.30;;;;;;2229042;62;20399;-67
2024/01/27 05:05:05;0.00;0.00;0.62;0.00;0.00;0.62;3.00;1.20;;;20.80;24.30;;;;;;2228757;62;20601;-68
2024/01/27 05:07:50;0.00;0.00;0.62;0.00;0.00;0.62;2.47;1.03;;;20.80;24.30;;;;;;2228898;62;20428;-67
2024/01/27 05:10:36;0.00;0.00;0.62;0.00;0.00;0.62;2.93;1.10;;;20.80;24.30;;;;;;2228787;62;20518;-67
2024/01/27 05:13:21;0.00;0.00;0.62;0.00;0.00;0.62;1.67;0.90;;;20.80;24.30;;;;;;2229008;62;20428;-68
2024/01/27 05:16:06;0.00;0.00;0.62;0.00;0.00;0.62;2.27;0.90;;;20.80;24.30;;;;;;2229099;62;20408;-68
2024/01/27 05:18:51;0.00;0.00;0.62;0.00;0.00;0.62;2.10;1.00;;;20.80;24.30;;;;;;2228957;62;20774;-67
2024/01/27 05:21:35;0.00;0.00;0.62;0.00;0.00;0.62;2.47;1.10;;;20.80;24.30;;;;;;2228672;62;20433;-67
2024/01/27 05:24:20;0.00;0.00;0.62;0.00;0.00;0.62;2.70;1.17;;;20.80;24.30;;;;;;2228670;62;20895;-68
2024/01/27 05:27:06;0.00;0.00;0.62;0.00;0.00;0.62;1.73;1.07;;;20.80;24.30;;;;;;2229035;62;20420;-67
2024/01/27 05:29:50;0.00;0.00;0.62;0.00;0.00;0.62;2.70;1.40;;;20.80;24.30;;;;;;2228716;62;20431;-67
2024/01/27 05:32:35;0.00;0.00;0.62;0.00;0.00;0.62;2.33;1.00;;;20.80;24.30;;;;;;2228797;62;20396;-67
2024/01/27 05:35:20;0.00;0.00;0.62;0.00;0.00;0.62;2.27;1.10;;;20.80;24.30;;;;;;2229157;62;20413;-67
2024/01/27 05:38:04;0.00;0.00;0.62;0.00;0.00;0.62;2.70;1.30;;;20.80;24.30;;;;;;2229162;62;20842;-68
2024/01/27 05:40:50;0.00;0.00;0.62;0.00;0.00;0.62;3.23;1.10;;;20.80;24.30;;;;;;2228651;62;20352;-66
2024/01/27 05:43:36;0.00;0.00;0.62;0.00;0.00;0.62;3.83;1.27;;;20.80;24.30;;;;;;2228749;62;20408;-67
2024/01/27 05:46:21;0.00;0.00;0.62;0.00;0.00;0.62;2.07;1.10;;;20.80;24.30;;;;;;2228191;62;20820;-67
2024/01/27 05:49:06;0.00;0.00;0.62;0.00;0.00;0.62;2.00;0.90;;;20.80;24.30;;;;;;2228903;62;20387;-68
2024/01/27 05:51:50;0.00;0.00;0.62;0.00;0.00;0.62;2.77;1.10;;;20.80;24.30;;;;;;2228665;62;20457;-68
2024/01/27 05:54:35;0.00;0.00;0.62;0.00;0.00;0.62;1.80;1.00;;;20.80;24.30;;;;;;2228948;62;20368;-66
2024/01/27 05:57:20;0.00;0.00;0.62;0.00;0.00;0.62;2.03;0.97;;;20.80;24.30;;;;;;2228957;62;20509;-66
2024/01/27 06:00:09;0.00;0.00;0.62;0.00;0.00;0.62;2.73;1.17;;;20.80;24.30;;;;;;2229063;62;20395;-67
2024/01/27 06:02:54;0.00;0.00;0.62;0.00;0.00;0.62;2.00;1.03;;;20.70;24.30;;;;;;2228179;62;20388;-68
2024/01/27 06:05:39;0.00;0.00;0.62;0.00;0.00;0.62;2.30;1.27;;;20.70;24.20;;;;;;2228674;62;20388;-67
2024/01/27 06:08:23;0.00;0.00;0.62;0.00;0.00;0.62;2.10;1.00;;;20.80;24.30;;;;;;2228700;62;20455;-66
2024/01/27 06:11:08;0.00;0.00;0.62;0.00;0.00;0.62;3.13;1.00;;;20.70;24.20;;;;;;2228232;62;20432;-66
2024/01/27 06:13:53;0.00;0.00;0.62;0.00;0.00;0.62;1.83;0.93;;;20.70;24.20;;;;;;2228938;62;20831;-67
2024/01/27 06:16:39;0.00;0.00;0.62;0.00;0.00;0.62;1.90;1.00;;;20.70;24.20;;;;;;2228758;62;20911;-66
2024/01/27 06:19:23;0.00;0.00;0.62;0.00;0.00;0.62;2.63;1.10;;;20.70;24.20;;;;;;2228840;62;20932;-67
2024/01/27 06:22:07;0.00;0.00;0.62;0.00;0.00;0.62;1.70;1.00;;;20.70;24.20;;;;;;2228467;62;20391;-68
2024/01/27 06:24:52;0.00;0.00;0.62;0.00;0.00;0.62;3.47;1.30;;;20.70;24.20;;;;;;2228411;62;20368;-67
2024/01/27 06:27:38;0.00;0.00;0.62;0.00;0.00;0.62;1.67;1.07;;;20.70;24.80;;;;;;2228606;62;20379;-67
2024/01/27 06:30:23;0.00;0.00;0.62;0.00;0.00;0.62;2.03;1.30;;;20.70;24.30;;;;;;2228115;62;20822;-67
2024/01/27 06:33:09;0.00;0.00;0.62;0.00;0.00;0.62;1.70;0.97;;;20.70;24.30;;;;;;2228549;62;20906;-67
2024/01/27 06:35:53;0.00;0.00;0.62;0.00;0.00;0.62;2.63;1.20;;;20.70;24.20;;;;;;2228488;62;20368;-67
2024/01/27 06:38:38;0.00;0.00;0.62;0.00;0.00;0.62;2.00;0.90;;;20.70;24.20;;;;;;2228430;62;20369;-66
2024/01/27 06:41:22;0.00;0.00;0.62;0.00;0.00;0.62;5.27;1.10;;;20.70;24.20;;;;;;2228346;62;20517;-67
2024/01/27 06:44:07;0.00;0.00;0.62;0.00;0.00;0.62;2.77;1.40;;;20.70;24.20;;;;;;2228755;62;20368;-66
2024/01/27 06:46:52;0.00;0.00;0.62;0.00;0.00;0.62;2.43;1.40;;;20.70;24.20;;;;;;2228309;62;20396;-67
2024/01/27 06:49:38;0.00;0.00;0.62;0.00;0.00;0.62;1.90;1.20;;;20.70;24.20;;;;;;2228718;62;20420;-66
2024/01/27 06:52:22;0.00;0.00;0.62;0.00;0.00;0.62;1.60;0.80;;;20.70;24.30;;;;;;2228582;62;20408;-66
2024/01/27 06:55:07;0.00;0.00;0.62;0.00;0.00;0.62;2.07;1.20;;;20.80;24.30;;;;;;2228832;62;20869;-69
2024/01/27 06:57:52;0.00;0.00;0.62;0.00;0.00;0.62;2.20;1.17;;;20.70;24.30;;;;;;2228721;62;20951;-66
2024/01/27 07:00:36;0.00;0.00;0.62;0.00;0.00;0.62;1.70;1.00;;;20.70;24.30;;;;;;2228464;62;20455;-66
2024/01/27 07:03:21;0.00;0.00;0.62;0.00;0.00;0.62;2.17;1.10;;;20.70;24.30;;;;;;2228792;62;20421;-66
2024/01/27 07:06:07;0.00;0.00;0.62;0.00;0.00;0.62;1.77;0.93;;;20.70;24.20;;;;;;2228885;62;20372;-67
2024/01/27 07:08:52;0.00;0.00;0.62;0.00;0.00;0.62;2.63;1.00;;;20.70;24.30;;;;;;2228838;62;20887;-67
2024/01/27 07:11:36;0.00;0.00;0.62;0.00;0.00;0.62;2.90;1.13;;;20.70;24.20;;;;;;2228581;62;20455;-66
2024/01/27 07:14:21;0.00;0.00;0.62;0.00;0.00;0.62;2.27;1.00;;;20.70;24.30;;;;;;2228697;62;20379;-67
2024/01/27 07:17:05;0.00;0.00;0.62;0.00;0.00;0.62;1.73;0.93;;;20.70;24.30;;;;;;2228861;62;20368;-67
2024/01/27 07:19:50;0.00;0.00;0.62;0.00;0.00;0.62;1.83;1.20;;;20.70;24.30;;;;;;2228674;62;20372;-67
2024/01/27 07:22:35;0.00;0.00;0.62;0.00;0.00;0.62;1.70;1.00;;;20.70;24.20;;;;;;2228310;62;20427;-67
2024/01/27 07:25:20;0.00;0.00;0.62;0.00;0.00;0.62;2.07;0.90;;;20.70;24.30;;;;;;2228709;62;20415;-67
2024/01/27 07:28:05;0.00;0.00;0.62;0.00;0.00;0.62;2.13;1.00;;;20.70;24.20;;;;;;2228608;62;20403;-66
2024/01/27 07:30:49;0.00;0.00;0.62;0.00;0.00;0.62;1.60;1.00;;;20.70;24.20;;;;;;2228579;62;20376;-67
2024/01/27 07:33:34;0.00;0.00;0.62;0.00;0.00;0.62;1.77;0.80;;;20.70;24.20;;;;;;2229343;62;20939;-67
2024/01/27 07:36:18;0.00;0.00;0.62;0.00;0.00;0.62;1.83;1.00;;;20.70;24.30;;;;;;2229260;62;20420;-66
2024/01/27 07:39:04;0.00;0.00;0.62;0.00;0.00;0.62;2.57;1.60;;;20.70;24.20;;;;;;2229071;62;20389;-66
2024/01/27 07:41:49;0.00;0.00;0.62;0.00;0.00;0.62;1.50;0.90;;;20.70;24.20;;;;;;2229009;62;20399;-66
2024/01/27 07:44:34;0.00;0.00;0.62;0.00;0.00;0.62;2.60;1.10;;;20.70;24.20;;;;;;2229194;62;20412;-67
2024/01/27 07:47:19;0.00;0.00;0.62;0.00;0.00;0.62;2.30;1.10;;;20.70;24.20;;;;;;2229284;62;20367;-66
2024/01/27 07:50:04;0.00;0.00;0.62;0.00;0.00;0.62;1.90;0.97;;;20.70;24.80;;;;;;2229053;62;20914;-67
2024/01/27 07:52:48;0.00;0.00;0.62;0.00;0.00;0.62;2.23;1.00;;;20.70;24.30;;;;;;2228862;62;20427;-66
2024/01/27 07:55:34;0.00;0.00;0.62;0.00;0.00;0.62;2.60;1.00;;;20.70;24.20;;;;;;2229208;62;20891;-66
2024/01/27 07:58:19;0.00;0.00;0.62;0.00;0.00;0.62;2.00;0.93;;;20.70;24.20;;;;;;2229163;62;20385;-66
2024/01/27 08:01:04;0.00;0.00;0.62;0.00;0.00;0.62;2.87;1.40;;;20.70;24.30;;;;;;2228686;62;20997;-69
2024/01/27 08:03:49;0.00;0.00;0.62;0.00;0.00;0.62;2.40;0.80;;;20.70;24.20;;;;;;2228946;62;20472;-68
2024/01/27 08:06:33;0.00;0.00;0.62;0.00;0.00;0.62;2.90;1.17;;;20.70;24.30;;;;;;2228991;62;20456;-67
2024/01/27 08:09:18;0.00;0.00;0.62;0.00;0.00;0.62;2.17;1.20;;;20.70;24.20;;;;;;2229096;62;20390;-67
2024/01/27 08:12:06;0.00;0.00;0.62;0.00;0.00;0.62;1.73;1.00;;;20.70;24.30;;;;;;2229101;62;20388;-67
2024/01/27 08:14:52;0.00;0.00;0.62;0.00;0.00;0.62;2.90;1.50;;;20.70;24.30;;;;;;2229046;62;20387;-68
2024/01/27 08:17:36;0.00;0.00;0.62;0.00;0.00;0.62;1.80;1.00;;;20.70;24.30;;;;;;2229209;62;20428;-67
2024/01/27 08:20:21;0.00;0.00;0.62;0.00;0.00;0.62;2.03;1.03;;;20.70;24.30;;;;;;2229283;62;20516;-68
2024/01/27 08:23:05;0.00;0.00;0.62;0.00;0.00;0.62;2.33;1.17;;;20.70;24.30;;;;;;2229164;62;20440;-67
2024/01/27 08:25:52;0.00;0.00;0.62;0.00;0.00;0.62;2.97;1.57;;;20.70;24.30;;;;;;2229294;62;20396;-67
2024/01/27 08:28:38;0.00;0.00;0.62;0.00;0.00;0.62;2.80;1.60;;;20.70;24.30;;;;;;2229275;62;20787;-66
2024/01/27 08:31:23;0.00;0.00;0.62;0.00;0.00;0.62;3.40;1.97;;;20.70;24.30;;;;;;2228781;62;21055;-63
2024/01/27 08:34:07;0.00;0.00;0.62;0.00;0.00;0.62;2.40;1.80;;;20.70;24.30;;;;;;2228952;62;20895;-62
2024/01/27 08:36:52;0.00;0.00;0.62;0.00;0.00;0.62;3.10;1.33;;;20.70;24.30;;;;;;2228658;62;20398;-72
2024/01/27 08:39:36;0.00;0.00;0.62;0.00;0.00;0.62;2.30;1.30;;;20.70;24.30;;;;;;2228692;62;20385;-64
2024/01/27 08:42:21;0.00;0.00;0.62;0.00;0.00;0.62;3.17;1.83;;;20.70;24.30;;;;;;2228156;62;20392;-65
2024/01/27 08:45:08;0.00;0.00;0.62;0.00;0.00;0.62;3.27;1.90;;;20.70;24.40;;;;;;2228809;62;20528;-64
2024/01/27 08:47:52;0.00;0.00;0.62;0.00;0.00;0.62;2.97;1.77;;;20.70;24.40;;;;;;2228685;62;20915;-64
2024/01/27 08:50:37;0.00;0.00;0.62;0.00;0.00;0.62;4.40;2.53;;;20.70;24.40;;;;;;2228715;62;20788;-62
2024/01/27 08:53:22;0.00;0.00;0.62;0.00;0.00;0.62;5.30;2.40;;;20.70;24.40;;;;;;2228703;62;20923;-63
2024/01/27 08:56:06;0.00;0.00;0.62;0.00;0.00;0.62;3.70;2.43;;;20.70;24.40;;;;;;2228568;62;20429;-63
2024/01/27 08:58:52;0.00;0.00;0.62;0.00;0.00;0.62;3.50;2.43;;;20.70;24.40;;;;;;2228662;62;20368;-63
2024/01/27 09:01:38;0.00;0.00;0.62;0.00;0.00;0.62;6.63;2.97;;;20.70;24.40;;;;;;2228186;62;20404;-62
2024/01/27 09:04:22;0.00;0.00;0.62;0.00;0.00;0.62;4.10;2.10;;;20.70;24.40;;;;;;2228745;62;20783;-65
2024/01/27 09:07:07;0.00;0.00;0.62;0.00;0.00;0.62;4.13;3.27;;;20.70;24.40;;;;;;2228531;62;20805;-64
2024/01/27 09:09:51;0.00;0.00;0.62;0.00;0.00;0.62;4.63;3.07;;;20.70;24.40;;;;;;2228842;62;20372;-62
2024/01/27 09:12:36;0.00;0.00;0.62;0.00;0.00;0.62;4.80;3.20;;;20.70;24.40;;;;;;2228721;62;20472;-65
2024/01/27 09:15:20;0.00;0.00;0.62;0.00;0.00;0.62;3.57;2.33;;;20.70;24.40;;;;;;2228190;62;20364;-64
2024/01/27 09:18:06;0.00;0.00;0.62;0.00;0.00;0.62;4.40;2.93;;;20.70;24.40;;;;;;2228847;62;20368;-61
2024/01/27 09:20:51;0.00;0.00;0.62;0.00;0.00;0.62;3.17;2.33;;;20.80;24.50;;;;;;2227878;62;20420;-63
2024/01/27 09:23:36;0.00;0.00;0.62;0.00;0.00;0.62;4.80;2.50;;;20.80;24.50;;;;;;2228732;62;20827;-64
2024/01/27 09:26:22;0.00;0.00;0.62;0.00;0.00;0.62;4.50;2.77;;;20.80;24.50;;;;;;2228655;62;20396;-64
2024/01/27 09:29:07;0.00;0.00;0.62;0.00;0.00;0.62;3.80;2.93;;;20.80;24.50;;;;;;2525689;46;20388;-64
2024/01/27 09:31:51;0.00;0.00;0.62;0.00;0.00;0.62;4.07;2.60;;;20.80;24.50;;;;;;2228553;62;20433;-64
2024/01/27 09:34:37;0.00;0.00;0.62;0.00;0.00;0.62;4.60;3.10;;;20.80;24.50;;;;;;2228843;62;20388;-62
2024/01/27 09:37:22;0.00;0.00;0.62;0.00;0.00;0.62;3.73;2.70;;;20.80;24.60;;;;;;2228674;62;20372;-61
2024/01/27 09:40:08;0.00;0.00;0.62;0.00;0.00;0.62;4.90;3.60;;;20.80;25.10;;;;;;2228583;62;20384;-63
2024/01/27 09:42:56;0.00;0.00;0.62;0.00;0.00;0.62;4.10;2.67;;;20.80;24.60;;;;;;2228010;62;20501;-64
2024/01/27 09:45:41;0.00;0.00;0.62;0.00;0.00;0.62;4.40;3.23;;;20.80;24.60;;;;;;2228838;62;20943;-62
2024/01/27 09:48:27;0.00;0.00;0.62;0.00;0.00;0.62;4.73;3.90;;;20.90;24.70;;;;;;2228252;62;20525;-62
2024/01/27 09:51:13;0.00;0.00;0.62;0.00;0.00;0.62;5.13;3.07;;;20.90;24.70;;;;;;2228510;62;20439;-63
2024/01/27 09:53:57;0.00;0.00;0.62;0.00;0.00;0.62;4.40;3.27;;;20.90;24.70;;;;;;2228747;62;20399;-65
2024/01/27 09:56:45;0.00;0.00;0.62;0.00;0.00;0.62;4.40;3.53;;;20.90;24.70;;;;;;2228618;62;20400;-63
2024/01/27 09:59:30;0.00;0.00;0.62;0.00;0.00;0.62;3.60;2.73;;;20.90;24.70;;;;;;2228652;62;20472;-63
2024/01/27 10:02:17;0.00;0.00;0.62;0.00;0.00;0.62;6.07;3.40;;;20.90;24.70;;;;;;2228813;62;20396;-64
2024/01/27 10:05:02;0.00;0.00;0.62;0.00;0.00;0.62;6.97;3.50;;;20.90;24.70;;;;;;2228415;62;20547;-62
2024/01/27 10:07:48;0.00;0.00;0.62;0.00;0.00;0.62;5.53;3.30;;;20.90;24.70;;;;;;2228936;62;20480;-64
2024/01/27 10:10:33;0.00;0.00;0.62;0.00;0.00;0.62;4.70;3.23;;;21.00;24.80;;;;;;2228851;62;20380;-65
2024/01/27 10:13:18;0.00;0.00;0.62;0.00;0.00;0.62;3.83;2.97;;;21.00;25.30;;;;;;2228884;62;20364;-62
2024/01/27 10:16:04;0.00;0.00;0.62;0.00;0.00;0.62;5.13;3.53;;;21.00;24.80;;;;;;2228931;62;20368;-63
2024/01/27 10:19:00;0.00;0.00;0.62;0.00;0.00;0.62;4.83;3.53;;;21.00;24.80;;;;;;2229028;62;20507;-64
2024/01/27 10:21:46;0.00;0.00;0.62;0.00;0.00;0.62;4.57;3.50;;;21.00;24.80;;;;;;2228509;62;20408;-63
2024/01/27 10:24:33;0.00;0.00;0.62;0.00;0.00;0.62;5.00;3.10;;;21.00;24.80;;;;;;2228872;62;20376;-62
2024/01/27 10:27:18;0.00;0.00;0.62;0.00;0.00;0.62;5.70;3.43;;;21.10;24.90;;;;;;2228601;62;20906;-61
2024/01/27 10:30:04;0.00;0.00;0.62;0.00;0.00;0.62;5.70;3.77;;;21.10;24.90;;;;;;2228808;62;20499;-64
2024/01/27 10:32:58;0.00;0.00;0.62;0.00;0.00;0.62;4.77;3.30;;;21.10;24.90;;;;;;2228630;62;20910;-61
2024/01/27 10:35:44;0.00;0.00;0.62;0.00;0.00;0.62;5.77;3.90;;;21.10;24.90;;;;;;2228853;62;20932;-63
2024/01/27 10:38:36;0.00;0.00;0.62;0.00;0.00;0.62;6.00;4.20;;;21.10;24.90;;;;;;2228649;62;20376;-63
2024/01/27 10:41:27;0.00;0.00;0.62;0.00;0.00;0.62;4.97;3.50;;;21.10;24.90;;;;;;2228457;62;20411;-63
2024/01/27 10:44:15;0.00;0.00;0.62;0.00;0.00;0.62;5.33;3.27;;;21.20;25.00;;;;;;2228761;62;20376;-64
2024/01/27 10:47:03;0.00;0.00;0.62;0.00;0.00;0.62;4.50;3.20;;;21.20;25.00;;;;;;2228506;62;20400;-63
2024/01/27 10:49:48;0.00;0.00;0.62;0.00;0.00;0.62;5.77;4.00;;;21.20;25.00;;;;;;2228409;62;20372;-61
2024/01/27 10:52:34;0.00;0.00;0.62;0.00;0.00;0.62;6.00;4.17;;;21.20;25.00;;;;;;2228533;62;20913;-70